createdAt,value
2023-03-06T00:00:54.670Z,2.04
2023-03-06T00:03:22.605Z,2.04
2023-03-06T00:05:49.674Z,2.00
2023-03-06T00:08:16.530Z,1.78
2023-03-06T00:10:43.942Z,1.94
2023-03-06T00:13:18.972Z,1.80
2023-03-06T00:15:47.058Z,1.80
2023-03-06T00:18:14.574Z,1.84
2023-03-06T00:20:42.935Z,1.82
2023-03-06T00:23:11.158Z,1.78
2023-03-06T00:25:41.667Z,1.71
2023-03-06T00:28:08.842Z,1.65
2023-03-06T00:30:35.950Z,1.58
2023-03-06T00:33:03.001Z,1.59
2023-03-06T00:35:30.301Z,1.58
2023-03-06T00:37:59.743Z,1.43
2023-03-06T00:40:27.464Z,1.45
2023-03-06T00:42:54.432Z,1.43
2023-03-06T00:45:21.427Z,1.47
2023-03-06T00:47:48.403Z,1.46
2023-03-06T00:50:15.489Z,1.50
2023-03-06T00:52:42.580Z,1.53
2023-03-06T00:55:10.812Z,1.38
2023-03-06T00:57:38.065Z,1.56
2023-03-06T01:00:06.224Z,1.53
2023-03-06T01:02:33.281Z,1.49
2023-03-06T01:05:00.433Z,1.36
2023-03-06T01:07:33.445Z,1.33
2023-03-06T01:10:00.522Z,1.28
2023-03-06T01:12:27.397Z,1.29
2023-03-06T01:14:54.331Z,1.28
2023-03-06T01:17:21.265Z,1.17
2023-03-06T01:19:48.289Z,1.24
2023-03-06T01:22:15.095Z,1.17
2023-03-06T01:24:41.964Z,1.32
2023-03-06T01:27:08.901Z,1.30
2023-03-06T01:29:35.782Z,1.21
2023-03-06T01:32:02.848Z,1.23
2023-03-06T01:34:29.773Z,1.31
2023-03-06T01:36:56.644Z,1.31
2023-03-06T01:39:23.608Z,1.27
2023-03-06T01:41:50.433Z,1.19
2023-03-06T01:44:17.335Z,1.25
2023-03-06T01:46:45.482Z,1.26
2023-03-06T01:49:30.992Z,1.26
2023-03-06T01:52:03.234Z,1.27
2023-03-06T01:54:38.320Z,1.27
2023-03-06T01:57:13.047Z,1.26
2023-03-06T01:59:42.438Z,1.09
2023-03-06T02:02:11.721Z,1.26
2023-03-06T02:04:40.521Z,1.24
2023-03-06T02:07:08.915Z,1.23
2023-03-06T02:09:37.754Z,1.20
2023-03-06T02:12:14.529Z,1.21
2023-03-06T02:14:42.516Z,1.20
2023-03-06T02:17:12.379Z,1.12
2023-03-06T02:19:48.562Z,1.12
2023-03-06T02:22:15.524Z,1.25
2023-03-06T02:25:03.523Z,1.31
2023-03-06T02:27:31.143Z,1.33
2023-03-06T02:29:58.117Z,1.37
2023-03-06T02:32:25.094Z,1.42
2023-03-06T02:34:59.224Z,1.43
2023-03-06T02:37:28.757Z,1.42
2023-03-06T02:40:08.446Z,1.57
2023-03-06T02:42:35.627Z,1.52
2023-03-06T02:45:05.359Z,1.64
2023-03-06T02:47:32.194Z,1.68
2023-03-06T02:49:59.049Z,1.72
2023-03-06T02:52:25.924Z,1.78
2023-03-06T02:54:52.832Z,1.81
2023-03-06T02:57:19.865Z,1.96
2023-03-06T02:59:46.835Z,1.99
2023-03-06T03:02:13.925Z,2.01
2023-03-06T03:04:40.941Z,1.92
2023-03-06T03:07:08.295Z,2.05
2023-03-06T03:09:37.062Z,2.05
2023-03-06T03:12:06.101Z,2.05
2023-03-06T03:14:33.227Z,2.09
2023-03-06T03:17:00.730Z,2.09
2023-03-06T03:19:42.641Z,2.12
2023-03-06T03:22:09.653Z,2.13
2023-03-06T03:24:36.517Z,2.12
2023-03-06T03:27:03.643Z,2.16
2023-03-06T03:29:30.625Z,2.16
2023-03-06T03:31:57.508Z,2.13
2023-03-06T03:34:24.478Z,2.12
2023-03-06T03:36:51.301Z,2.13
2023-03-06T03:39:18.445Z,2.13
2023-03-06T03:41:45.987Z,2.09
2023-03-06T03:44:13.143Z,2.14
2023-03-06T03:46:40.130Z,2.14
2023-03-06T03:49:07.148Z,2.14
2023-03-06T03:51:34.126Z,2.11
2023-03-06T03:54:00.968Z,2.07
2023-03-06T03:56:27.801Z,2.04
2023-03-06T03:58:54.770Z,1.99
2023-03-06T04:01:22.077Z,1.86
2023-03-06T04:03:49.157Z,1.93
2023-03-06T04:06:16.228Z,1.93
2023-03-06T04:08:43.828Z,1.92
2023-03-06T04:11:10.926Z,1.93
2023-03-06T04:13:38.300Z,1.97
2023-03-06T04:16:05.750Z,2.00
2023-03-06T04:18:33.097Z,2.02
2023-03-06T04:21:00.114Z,2.03
2023-03-06T04:23:27.995Z,1.93
2023-03-06T04:25:55.166Z,2.05
2023-03-06T04:28:22.240Z,2.10
2023-03-06T04:31:15.695Z,2.11
2023-03-06T04:33:42.548Z,2.11
2023-03-06T04:36:25.377Z,2.00
2023-03-06T04:38:52.281Z,1.93
2023-03-06T04:41:19.762Z,2.06
2023-03-06T04:43:46.677Z,1.90
2023-03-06T04:46:13.519Z,2.07
2023-03-06T04:48:40.720Z,1.98
2023-03-06T04:51:07.718Z,2.08
2023-03-06T04:53:34.577Z,2.09
2023-03-06T04:56:01.545Z,2.09
2023-03-06T04:58:28.871Z,2.09
2023-03-06T05:00:55.819Z,2.11
2023-03-06T05:03:22.804Z,2.09
2023-03-06T05:05:49.632Z,2.11
2023-03-06T05:08:17.821Z,2.09
2023-03-06T05:10:45.563Z,2.07
2023-03-06T05:13:12.779Z,2.06
2023-03-06T05:15:42.621Z,2.05
2023-03-06T05:18:15.375Z,2.04
2023-03-06T05:20:42.378Z,1.90
2023-03-06T05:23:09.758Z,2.02
2023-03-06T05:25:39.750Z,1.91
2023-03-06T05:28:07.596Z,1.93
2023-03-06T05:30:34.971Z,1.90
2023-03-06T05:33:01.989Z,1.90
2023-03-06T05:35:28.955Z,1.90
2023-03-06T05:37:56.126Z,1.77
2023-03-06T05:40:23.094Z,1.86
2023-03-06T05:42:50.100Z,1.75
2023-03-06T05:45:17.055Z,1.76
2023-03-06T05:47:44.080Z,1.78
2023-03-06T05:50:12.037Z,1.75
2023-03-06T05:52:40.014Z,1.56
2023-03-06T05:55:07.990Z,1.70
2023-03-06T05:57:34.931Z,1.68
2023-03-06T06:00:01.842Z,1.66
2023-03-06T06:02:30.650Z,1.67
2023-03-06T06:04:57.631Z,1.55
2023-03-06T06:07:24.438Z,1.63
2023-03-06T06:09:53.779Z,1.62
2023-03-06T06:12:20.889Z,1.64
2023-03-06T06:14:47.759Z,1.53
2023-03-06T06:17:14.643Z,1.59
2023-03-06T06:19:41.611Z,1.61
2023-03-06T06:22:08.742Z,1.61
2023-03-06T06:24:35.597Z,1.63
2023-03-06T06:27:03.964Z,1.61
2023-03-06T06:29:31.541Z,1.63
2023-03-06T06:31:59.271Z,1.67
2023-03-06T06:34:26.492Z,1.69
2023-03-06T06:36:54.602Z,1.64
2023-03-06T06:39:23.252Z,1.60
2023-03-06T06:42:05.505Z,1.74
2023-03-06T06:44:39.775Z,1.77
2023-03-06T06:47:24.895Z,1.74
2023-03-06T06:49:56.493Z,1.80
2023-03-06T06:52:24.968Z,1.79
2023-03-06T06:54:52.637Z,1.81
2023-03-06T06:57:19.954Z,1.73
2023-03-06T06:59:46.859Z,1.85
2023-03-06T07:02:16.033Z,1.87
2023-03-06T07:04:56.562Z,1.92
2023-03-06T07:07:30.567Z,1.96
2023-03-06T07:09:58.107Z,1.92
2023-03-06T07:12:26.022Z,1.87
2023-03-06T07:14:53.165Z,1.97
2023-03-06T07:17:20.413Z,1.97
2023-03-06T07:19:48.409Z,1.99
2023-03-06T07:22:15.691Z,2.04
2023-03-06T07:24:43.198Z,2.00
2023-03-06T07:27:10.411Z,1.94
2023-03-06T07:29:37.440Z,2.12
2023-03-06T07:32:04.760Z,1.96
2023-03-06T07:34:32.048Z,2.08
2023-03-06T07:36:58.886Z,2.05
2023-03-06T07:39:25.713Z,2.08
2023-03-06T07:41:53.526Z,2.07
2023-03-06T07:44:20.712Z,2.08
2023-03-06T07:46:47.773Z,2.10
2023-03-06T07:49:14.667Z,2.09
2023-03-06T07:51:41.776Z,2.13
2023-03-06T07:54:08.987Z,2.12
2023-03-06T07:56:35.937Z,2.17
2023-03-06T07:59:03.342Z,2.15
2023-03-06T08:01:30.613Z,2.21
2023-03-06T08:03:57.836Z,2.15
2023-03-06T08:06:26.964Z,2.21
2023-03-06T08:08:55.650Z,2.23
2023-03-06T08:11:25.000Z,2.24
2023-03-06T08:13:53.066Z,2.24
2023-03-06T08:16:25.737Z,2.22
2023-03-06T08:18:53.280Z,2.22
2023-03-06T08:21:23.949Z,2.20
2023-03-06T08:23:51.413Z,2.29
2023-03-06T08:26:24.654Z,2.04
2023-03-06T08:28:52.914Z,2.31
2023-03-06T08:31:36.447Z,2.30
2023-03-06T08:34:07.720Z,2.32
2023-03-06T08:36:34.602Z,2.34
2023-03-06T08:39:02.339Z,2.36
2023-03-06T08:41:29.436Z,2.41
2023-03-06T08:43:56.394Z,2.33
2023-03-06T08:46:26.019Z,2.39
2023-03-06T08:48:53.263Z,2.43
2023-03-06T08:51:21.774Z,2.45
2023-03-06T08:53:50.065Z,2.48
2023-03-06T08:56:31.532Z,2.51
2023-03-06T08:59:00.068Z,2.53
2023-03-06T09:01:29.875Z,2.52
2023-03-06T09:04:00.071Z,2.50
2023-03-06T09:06:30.235Z,2.54
2023-03-06T09:08:57.316Z,2.55
2023-03-06T09:11:25.527Z,2.55
2023-03-06T09:13:53.586Z,2.64
2023-03-06T09:16:20.535Z,2.77
2023-03-06T09:18:50.439Z,2.67
2023-03-06T09:21:17.808Z,2.76
2023-03-06T09:23:45.176Z,2.80
2023-03-06T09:26:13.001Z,2.77
2023-03-06T09:28:40.817Z,3.08
2023-03-06T09:31:19.184Z,3.30
2023-03-06T09:33:46.812Z,3.46
2023-03-06T09:36:20.280Z,3.58
2023-03-06T09:38:48.474Z,3.64
2023-03-06T09:41:49.608Z,3.70
2023-03-06T09:44:18.045Z,3.71
2023-03-06T09:47:00.318Z,3.75
2023-03-06T09:49:46.025Z,3.96
2023-03-06T09:52:25.224Z,4.09
2023-03-06T09:55:01.061Z,4.31
2023-03-06T09:57:33.163Z,4.37
2023-03-06T10:00:05.781Z,4.39
2023-03-06T10:02:44.633Z,4.37
2023-03-06T10:05:21.714Z,4.26
2023-03-06T10:08:02.010Z,4.29
2023-03-06T10:10:49.743Z,4.24
2023-03-06T10:13:25.347Z,4.24
2023-03-06T10:15:59.420Z,4.26
2023-03-06T10:18:26.308Z,4.34
2023-03-06T10:20:59.459Z,4.43
2023-03-06T10:23:52.025Z,4.31
2023-03-06T10:26:49.767Z,4.29
2023-03-06T10:29:22.866Z,4.41
2023-03-06T10:32:01.696Z,4.42
2023-03-06T10:34:36.919Z,4.51
2023-03-06T10:37:16.773Z,4.20
2023-03-06T10:39:43.655Z,4.32
2023-03-06T10:42:10.597Z,4.54
2023-03-06T10:44:37.512Z,4.81
2023-03-06T10:47:35.320Z,4.91
2023-03-06T10:50:06.052Z,5.05
2023-03-06T10:52:36.094Z,5.15
2023-03-06T10:55:25.219Z,5.13
2023-03-06T10:57:52.342Z,5.19
2023-03-06T11:00:36.006Z,5.59
2023-03-06T11:03:04.846Z,5.77
2023-03-06T11:05:31.751Z,5.80
2023-03-06T11:08:00.439Z,6.04
2023-03-06T11:10:29.164Z,5.97
2023-03-06T11:13:21.292Z,6.15
2023-03-06T11:16:07.782Z,6.04
2023-03-06T11:18:41.111Z,6.30
2023-03-06T11:21:43.337Z,6.59
2023-03-06T11:24:20.130Z,6.45
2023-03-06T11:26:52.633Z,6.41
2023-03-06T11:29:43.426Z,6.36
2023-03-06T11:32:16.923Z,6.35
2023-03-06T11:34:52.335Z,6.26
2023-03-06T11:37:43.475Z,6.28
2023-03-06T11:40:19.483Z,6.33
2023-03-06T11:43:06.184Z,6.40
2023-03-06T11:45:57.376Z,6.43
2023-03-06T11:48:40.628Z,6.66
2023-03-06T11:51:28.701Z,6.39
2023-03-06T11:53:58.610Z,6.39
2023-03-06T11:56:42.981Z,6.35
2023-03-06T11:59:31.328Z,6.25
2023-03-06T12:02:26.351Z,5.71
2023-03-06T12:05:18.182Z,5.79
2023-03-06T12:08:23.735Z,5.26
2023-03-06T12:14:02.144Z,5.52
2023-03-06T12:16:42.929Z,5.52
2023-03-06T12:19:19.851Z,5.41
2023-03-06T12:22:09.324Z,5.37
2023-03-06T12:24:55.214Z,5.29
2023-03-06T12:27:52.295Z,5.32
2023-03-06T12:30:31.138Z,5.29
2023-03-06T12:33:11.464Z,5.30
2023-03-06T12:36:02.494Z,5.29
2023-03-06T12:38:47.267Z,5.22
2023-03-06T12:41:51.984Z,5.20
2023-03-06T12:44:34.070Z,5.20
2023-03-06T12:47:10.454Z,5.20
2023-03-06T12:49:51.777Z,5.16
2023-03-06T12:52:30.703Z,5.21
2023-03-06T12:55:01.349Z,5.22
2023-03-06T12:57:29.886Z,5.25
2023-03-06T12:59:56.829Z,5.31
2023-03-06T13:02:46.246Z,5.46
2023-03-06T13:05:35.134Z,5.55
2023-03-06T13:08:20.583Z,5.52
2023-03-06T13:11:20.213Z,5.44
2023-03-06T13:13:49.065Z,5.37
2023-03-06T13:16:16.051Z,5.50
2023-03-06T13:18:42.977Z,5.48
2023-03-06T13:21:42.514Z,5.39
2023-03-06T13:24:27.248Z,5.40
2023-03-06T13:27:06.443Z,5.36
2023-03-06T13:29:36.428Z,5.42
2023-03-06T13:32:03.572Z,5.51
2023-03-06T13:34:47.067Z,5.54
2023-03-06T13:37:14.020Z,5.54
2023-03-06T13:39:56.123Z,5.46
2023-03-06T13:42:36.773Z,5.63
2023-03-06T13:45:22.967Z,5.79
2023-03-06T13:50:46.869Z,5.93
2023-03-06T13:54:00.233Z,5.79
2023-03-06T13:56:58.398Z,5.81
2023-03-06T14:00:03.047Z,5.73
2023-03-06T14:02:41.284Z,5.43
2023-03-06T14:05:14.527Z,5.49
2023-03-06T14:07:46.628Z,5.46
2023-03-06T14:10:13.591Z,5.40
2023-03-06T14:13:00.853Z,5.33
2023-03-06T14:15:36.534Z,5.26
2023-03-06T14:18:24.488Z,5.09
2023-03-06T14:21:01.026Z,5.12
2023-03-06T14:23:35.388Z,5.05
2023-03-06T14:26:08.461Z,5.12
2023-03-06T14:28:36.547Z,5.10
2023-03-06T14:31:05.996Z,5.16
2023-03-06T14:33:43.239Z,5.19
2023-03-06T14:36:19.982Z,5.21
2023-03-06T14:38:51.663Z,5.22
2023-03-06T14:41:27.466Z,5.22
2023-03-06T14:44:19.257Z,5.21
2023-03-06T14:46:48.805Z,5.17
2023-03-06T14:49:18.280Z,5.24
2023-03-06T14:51:54.677Z,5.28
2023-03-06T14:54:26.348Z,5.24
2023-03-06T14:57:02.974Z,5.17
2023-03-06T14:59:34.934Z,5.22
2023-03-06T15:02:05.759Z,5.17
2023-03-06T15:04:55.103Z,5.22
2023-03-06T15:07:27.818Z,5.22
2023-03-06T15:09:55.233Z,5.24
2023-03-06T15:12:29.818Z,5.23
2023-03-06T15:15:06.255Z,5.19
2023-03-06T15:17:45.093Z,5.21
2023-03-06T15:20:36.801Z,5.11
2023-03-06T15:23:13.497Z,5.16
2023-03-06T15:25:40.383Z,5.14
2023-03-06T15:28:32.754Z,5.14
2023-03-06T15:31:22.323Z,5.13
2023-03-06T15:34:16.043Z,5.07
2023-03-06T15:36:54.672Z,4.98
2023-03-06T15:39:32.182Z,4.97
2023-03-06T15:42:19.543Z,5.00
2023-03-06T15:44:49.168Z,4.91
2023-03-06T15:47:16.155Z,4.81
2023-03-06T15:49:43.641Z,4.74
2023-03-06T15:52:11.055Z,4.69
2023-03-06T15:54:38.547Z,4.69
2023-03-06T15:57:08.826Z,4.70
2023-03-06T15:59:43.028Z,4.63
2023-03-06T16:02:22.018Z,4.63
2023-03-06T16:04:49.899Z,4.58
2023-03-06T16:07:17.351Z,4.57
2023-03-06T16:09:45.004Z,4.51
2023-03-06T16:12:21.168Z,4.47
2023-03-06T16:14:48.890Z,4.46
2023-03-06T16:17:17.198Z,4.47
2023-03-06T16:19:44.725Z,4.48
2023-03-06T16:22:12.489Z,4.45
2023-03-06T16:24:39.531Z,4.43
2023-03-06T16:27:07.075Z,4.40
2023-03-06T16:29:34.113Z,4.40
2023-03-06T16:32:02.095Z,4.37
2023-03-06T16:34:29.256Z,4.35
2023-03-06T16:36:56.684Z,4.31
2023-03-06T16:39:25.259Z,4.32
2023-03-06T16:41:52.653Z,4.33
2023-03-06T16:44:23.125Z,4.26
2023-03-06T16:46:50.879Z,4.28
2023-03-06T16:49:20.980Z,4.26
2023-03-06T16:51:49.922Z,4.21
2023-03-06T16:54:17.655Z,4.16
2023-03-06T16:56:45.498Z,4.18
2023-03-06T16:59:13.458Z,4.13
2023-03-06T17:01:50.554Z,4.12
2023-03-06T17:04:18.283Z,4.11
2023-03-06T17:06:45.705Z,4.09
2023-03-06T17:09:14.435Z,4.09
2023-03-06T17:11:43.535Z,4.12
2023-03-06T17:14:10.422Z,4.10
2023-03-06T17:16:40.735Z,4.08
2023-03-06T17:19:07.945Z,3.99
2023-03-06T17:21:38.457Z,4.11
2023-03-06T17:24:10.208Z,4.09
2023-03-06T17:26:39.284Z,4.08
2023-03-06T17:29:07.272Z,4.08
2023-03-06T17:31:36.853Z,4.02
2023-03-06T17:34:04.446Z,4.03
2023-03-06T17:36:32.371Z,4.00
2023-03-06T17:39:02.125Z,3.96
2023-03-06T17:41:30.346Z,3.97
2023-03-06T17:43:58.716Z,3.90
2023-03-06T17:46:27.283Z,3.74
2023-03-06T17:48:57.801Z,3.88
2023-03-06T17:51:25.894Z,3.77
2023-03-06T17:53:55.786Z,3.67
2023-03-06T17:56:23.824Z,3.79
2023-03-06T17:58:53.020Z,3.63
2023-03-06T18:01:25.014Z,3.67
2023-03-06T18:03:53.252Z,3.76
2023-03-06T18:06:22.597Z,3.73
2023-03-06T18:08:52.708Z,3.68
2023-03-06T18:11:21.894Z,3.73
2023-03-06T18:13:50.228Z,3.69
2023-03-06T18:16:21.447Z,3.57
2023-03-06T18:18:57.023Z,3.68
2023-03-06T18:21:25.856Z,3.65
2023-03-06T18:23:55.470Z,3.63
2023-03-06T18:26:30.456Z,3.58
2023-03-06T18:29:04.157Z,3.53
2023-03-06T18:31:36.679Z,3.52
2023-03-06T18:34:08.395Z,3.53
2023-03-06T18:36:38.650Z,3.28
2023-03-06T18:39:10.160Z,3.39
2023-03-06T18:41:38.988Z,3.40
2023-03-06T18:44:08.768Z,3.31
2023-03-06T18:46:38.840Z,3.31
2023-03-06T18:49:07.197Z,3.29
2023-03-06T18:51:36.024Z,3.32
2023-03-06T18:54:05.476Z,3.32
2023-03-06T18:56:34.170Z,3.34
2023-03-06T18:59:07.051Z,3.33
2023-03-06T19:01:35.155Z,3.33
2023-03-06T19:04:04.571Z,3.30
2023-03-06T19:06:33.324Z,3.25
2023-03-06T19:09:02.831Z,3.00
2023-03-06T19:11:32.433Z,3.13
2023-03-06T19:14:02.110Z,3.05
2023-03-06T19:16:31.776Z,3.00
2023-03-06T19:19:00.343Z,2.96
2023-03-06T19:21:31.965Z,2.90
2023-03-06T19:23:59.571Z,2.90
2023-03-06T19:26:28.270Z,2.85
2023-03-06T19:28:56.564Z,2.79
2023-03-06T19:31:27.348Z,2.73
2023-03-06T19:33:57.510Z,2.76
2023-03-06T19:36:31.232Z,2.72
2023-03-06T19:39:03.465Z,2.70
2023-03-06T19:41:33.486Z,2.58
2023-03-06T19:44:08.609Z,2.58
2023-03-06T19:46:36.911Z,2.72
2023-03-06T19:49:13.306Z,2.73
2023-03-06T19:51:41.892Z,2.58
2023-03-06T19:54:13.199Z,2.70
2023-03-06T19:56:40.980Z,2.65
2023-03-06T19:59:13.258Z,2.55
2023-03-06T20:01:41.924Z,2.41
2023-03-06T20:04:10.187Z,2.27
2023-03-06T20:06:39.420Z,2.29
2023-03-06T20:09:09.864Z,2.25
2023-03-06T20:11:39.028Z,2.11
2023-03-06T20:14:10.400Z,2.16
2023-03-06T20:16:39.062Z,2.13
2023-03-06T20:19:07.626Z,2.11
2023-03-06T20:21:37.937Z,2.14
2023-03-06T20:24:07.183Z,2.10
2023-03-06T20:26:36.873Z,2.20
2023-03-06T20:29:05.484Z,2.13
2023-03-06T20:31:34.239Z,2.02
2023-03-06T20:34:03.342Z,1.97
2023-03-06T20:36:36.942Z,1.84
2023-03-06T20:39:09.475Z,1.99
2023-03-06T20:41:38.108Z,1.95
2023-03-06T20:44:11.476Z,1.93
2023-03-06T20:46:41.292Z,2.02
2023-03-06T20:49:10.309Z,1.96
2023-03-06T20:51:39.898Z,1.98
2023-03-06T20:54:11.396Z,2.03
2023-03-06T20:56:42.250Z,2.07
2023-03-06T20:59:12.555Z,1.84
2023-03-06T21:01:42.622Z,1.91
2023-03-06T21:04:13.724Z,1.84
2023-03-06T21:06:45.932Z,1.80
2023-03-06T21:09:16.036Z,1.72
2023-03-06T21:11:44.366Z,1.67
2023-03-06T21:14:13.338Z,1.45
2023-03-06T21:16:41.382Z,1.42
2023-03-06T21:19:09.338Z,1.47
2023-03-06T21:21:36.799Z,1.42
2023-03-06T21:24:04.298Z,1.31
2023-03-06T21:26:34.107Z,1.21
2023-03-06T21:29:02.544Z,1.01
2023-03-06T21:31:30.508Z,1.15
2023-03-06T21:33:59.183Z,1.17
2023-03-06T21:36:27.226Z,1.05
2023-03-06T21:38:54.866Z,1.27
2023-03-06T21:41:28.084Z,1.29
2023-03-06T21:44:00.809Z,1.36
2023-03-06T21:46:28.590Z,1.40
2023-03-06T21:48:57.424Z,1.24
2023-03-06T21:51:26.182Z,1.34
2023-03-06T21:53:54.452Z,1.34
2023-03-06T21:56:25.073Z,1.34
2023-03-06T21:58:52.344Z,1.33
2023-03-06T22:01:24.915Z,1.18
2023-03-06T22:03:52.753Z,1.32
2023-03-06T22:06:23.814Z,1.30
2023-03-06T22:08:51.381Z,1.31
2023-03-06T22:11:20.889Z,1.29
2023-03-06T22:13:48.658Z,1.25
2023-03-06T22:16:17.263Z,1.25
2023-03-06T22:18:52.272Z,1.18
2023-03-06T22:21:22.786Z,1.15
2023-03-06T22:23:51.485Z,1.24
2023-03-06T22:26:19.412Z,1.30
2023-03-06T22:28:46.787Z,1.28
2023-03-06T22:31:16.994Z,1.04
2023-03-06T22:33:44.434Z,1.17
2023-03-06T22:36:15.742Z,1.29
2023-03-06T22:38:44.813Z,1.37
2023-03-06T22:41:14.442Z,1.30
2023-03-06T22:43:42.055Z,1.37
2023-03-06T22:46:12.459Z,1.28
2023-03-06T22:48:40.302Z,1.16
2023-03-06T22:51:16.178Z,1.29
2023-03-06T22:53:44.774Z,1.32
2023-03-06T22:56:15.773Z,1.32
2023-03-06T22:58:45.076Z,1.31
2023-03-06T23:01:21.536Z,1.27
2023-03-06T23:03:51.303Z,1.29
2023-03-06T23:06:20.287Z,1.30
2023-03-06T23:09:09.434Z,1.25
2023-03-06T23:11:36.870Z,1.15
2023-03-06T23:14:05.932Z,1.05
2023-03-06T23:16:33.188Z,1.13
2023-03-06T23:19:00.290Z,0.91
2023-03-06T23:21:27.217Z,0.99
2023-03-06T23:23:54.687Z,0.97
2023-03-06T23:26:24.852Z,0.80
2023-03-06T23:28:52.951Z,0.81
2023-03-06T23:31:23.044Z,0.81
2023-03-06T23:33:50.627Z,0.73
2023-03-06T23:36:18.803Z,0.62
2023-03-06T23:38:46.573Z,0.55
2023-03-06T23:41:16.084Z,0.54
2023-03-06T23:43:43.747Z,0.55
2023-03-06T23:46:10.782Z,0.53
2023-03-06T23:48:40.658Z,0.41
2023-03-06T23:51:19.096Z,0.54
2023-03-06T23:53:48.344Z,0.43
2023-03-06T23:56:15.512Z,0.43
2023-03-06T23:58:42.954Z,0.41
